Time;durP1;ratioP1;P1;durP2;ratioP2;P2;SDS_P1;SDS_P2;PMS_P1;PMS_P2;Temp;Humidity;BMP_temperature;BMP_pressure;BME280_temperature;BME280_humidity;BME280_pressure;Samples;Min_cycle;Max_cycle;Signal;HPM_P1;HPM_P2
2021/06/22 00:00:17;;;;;;;7.47;5.53;;;14.90;99.90;;;;;;4991973;28;20281;-67
2021/06/22 00:02:46;;;;;;;6.97;5.47;;;14.90;99.90;;;;;;4989030;28;20194;-67
2021/06/22 00:05:17;;;;;;;5.87;5.27;;;14.90;99.90;;;;;;4989724;28;20187;-67
2021/06/22 00:07:46;;;;;;;6.17;4.83;;;14.90;99.90;;;;;;4989558;28;20194;-68
2021/06/22 00:10:15;;;;;;;6.43;4.57;;;14.90;99.90;;;;;;4988740;28;20342;-67
2021/06/22 00:12:45;;;;;;;5.20;4.80;;;14.90;99.90;;;;;;4989659;28;20306;-67
2021/06/22 00:15:17;;;;;;;7.73;4.97;;;14.90;99.90;;;;;;4989952;28;20199;-68
2021/06/22 00:17:47;;;;;;;8.43;5.07;;;14.90;99.90;;;;;;4990048;28;20439;-67
2021/06/22 00:20:17;;;;;;;7.50;4.90;;;14.90;99.90;;;;;;4989965;28;20273;-67
2021/06/22 00:22:46;;;;;;;8.47;4.93;;;14.90;99.90;;;;;;4989539;28;20277;-68
2021/06/22 00:25:16;;;;;;;5.80;4.83;;;14.80;99.90;;;;;;4970901;28;20239;-67
2021/06/22 00:27:47;;;;;;;8.57;4.90;;;14.80;99.90;;;;;;4981933;28;21051;-69
2021/06/22 00:30:16;;;;;;;6.00;5.17;;;14.80;99.90;;;;;;4989674;28;20257;-67
2021/06/22 00:32:45;;;;;;;6.43;4.70;;;14.80;99.90;;;;;;4989286;28;20718;-67
2021/06/22 00:35:15;;;;;;;5.57;5.10;;;14.80;99.90;;;;;;4987700;28;20229;-68
2021/06/22 00:37:44;;;;;;;9.07;5.27;;;14.80;99.90;;;;;;4989405;28;20187;-67
2021/06/22 00:40:19;;;;;;;9.60;5.60;;;14.80;99.90;;;;;;4989322;28;20195;-67
2021/06/22 00:42:49;;;;;;;6.07;5.47;;;14.80;99.90;;;;;;4989676;28;20203;-67
2021/06/22 00:45:27;;;;;;;9.77;5.90;;;14.80;99.90;;;;;;4989392;28;20690;-68
2021/06/22 00:47:56;;;;;;;7.10;6.07;;;14.80;99.90;;;;;;4989856;28;20190;-67
2021/06/22 00:50:25;;;;;;;7.83;6.40;;;14.80;99.90;;;;;;4988949;28;20254;-67
2021/06/22 00:52:54;;;;;;;6.77;6.17;;;14.70;99.90;;;;;;4992933;28;20257;-67
2021/06/22 00:55:32;;;;;;;7.13;6.40;;;14.70;99.90;;;;;;4992822;28;20642;-68
2021/06/22 00:58:23;;;;;;;10.30;6.57;;;14.70;99.90;;;;;;4986065;28;20199;-67
2021/06/22 01:00:54;;;;;;;10.73;6.83;;;14.70;99.90;;;;;;4990935;28;20191;-67
2021/06/22 01:03:23;;;;;;;13.17;6.70;;;14.70;99.90;;;;;;4992463;28;20207;-67
2021/06/22 01:05:52;;;;;;;9.43;6.43;;;14.70;99.90;;;;;;4992550;28;20277;-67
2021/06/22 01:08:20;;;;;;;13.67;6.90;;;14.60;99.90;;;;;;4992116;28;20277;-67
2021/06/22 01:10:48;;;;;;;7.67;5.80;;;14.60;99.90;;;;;;4992535;28;20736;-68
2021/06/22 01:13:17;;;;;;;10.90;6.33;;;14.60;99.90;;;;;;4972881;28;20222;-67
2021/06/22 01:15:47;;;;;;;11.97;6.90;;;14.60;99.90;;;;;;4991915;28;20187;-67
2021/06/22 01:18:16;;;;;;;9.20;6.60;;;14.50;99.90;;;;;;4986085;28;20759;-67
2021/06/22 01:20:45;;;;;;;8.00;6.57;;;14.50;99.90;;;;;;4988749;28;20241;-68
2021/06/22 01:23:16;;;;;;;12.07;6.60;;;14.50;99.90;;;;;;4992101;28;20225;-67
2021/06/22 01:25:44;;;;;;;7.77;6.90;;;14.40;99.90;;;;;;4992515;28;20198;-68
2021/06/22 01:28:12;;;;;;;8.13;6.60;;;14.40;99.90;;;;;;4991198;28;20250;-68
2021/06/22 01:30:41;;;;;;;12.20;6.53;;;14.30;99.90;;;;;;5023897;28;20652;-67
2021/06/22 01:33:09;;;;;;;12.27;6.77;;;14.30;99.90;;;;;;4992384;28;20891;-68
2021/06/22 01:35:37;;;;;;;8.17;6.70;;;14.20;99.90;;;;;;4992185;28;20222;-68
2021/06/22 01:38:09;;;;;;;7.17;6.10;;;14.20;99.90;;;;;;4992562;28;20218;-67
2021/06/22 01:40:45;;;;;;;12.47;6.20;;;14.20;99.90;;;;;;5022635;28;20302;-67
2021/06/22 01:43:13;;;;;;;9.77;5.73;;;14.20;99.90;;;;;;4990856;28;20297;-68
2021/06/22 01:45:42;;;;;;;12.47;5.50;;;14.20;99.90;;;;;;4991902;28;20227;-68
2021/06/22 01:48:10;;;;;;;8.33;6.00;;;14.20;99.90;;;;;;4991980;28;20285;-67
2021/06/22 01:50:41;;;;;;;10.23;5.53;;;14.20;99.90;;;;;;4991532;28;20297;-68
2021/06/22 01:53:10;;;;;;;8.33;5.53;;;14.20;99.90;;;;;;4990308;28;20241;-68
2021/06/22 01:55:39;;;;;;;10.10;5.10;;;14.20;99.90;;;;;;4990675;28;20191;-68
2021/06/22 01:58:11;;;;;;;6.63;4.97;;;14.10;99.90;;;;;;4991801;28;20218;-68
2021/06/22 02:00:41;;;;;;;7.67;4.90;;;14.10;99.90;;;;;;5023211;28;20662;-68
2021/06/22 02:03:18;;;;;;;8.97;5.07;;;14.10;99.90;;;;;;4991841;28;20190;-67
2021/06/22 02:05:47;;;;;;;8.83;5.50;;;14.10;99.90;;;;;;4991497;28;20215;-68
2021/06/22 02:08:16;;;;;;;6.80;5.10;;;14.10;99.90;;;;;;4991805;28;20724;-67
2021/06/22 02:10:46;;;;;;;13.20;5.87;;;14.10;99.90;;;;;;4991124;28;20622;-68
2021/06/22 02:13:16;;;;;;;7.87;5.60;;;14.00;99.90;;;;;;4990067;28;20317;-68
2021/06/22 02:15:45;;;;;;;7.17;5.23;;;14.00;99.90;;;;;;5018274;28;20203;-68
2021/06/22 02:18:13;;;;;;;8.37;5.83;;;14.00;99.90;;;;;;4999520;28;20753;-67
2021/06/22 02:20:43;;;;;;;10.00;5.90;;;14.10;99.90;;;;;;4990367;28;20651;-68
2021/06/22 02:23:12;;;;;;;8.53;5.63;;;14.00;99.90;;;;;;4991072;28;20835;-67
2021/06/22 02:25:41;;;;;;;9.93;5.67;;;14.00;99.90;;;;;;4990853;28;20295;-68
2021/06/22 02:28:12;;;;;;;8.83;5.60;;;14.00;99.90;;;;;;4991787;28;20290;-68
2021/06/22 02:30:43;;;;;;;9.57;5.47;;;14.00;99.90;;;;;;4990225;28;20318;-68
2021/06/22 02:33:12;;;;;;;6.47;4.83;;;14.00;99.90;;;;;;4991483;28;20191;-67
2021/06/22 02:35:40;;;;;;;9.23;5.80;;;14.00;99.90;;;;;;4990561;28;20653;-67
2021/06/22 02:38:10;;;;;;;7.90;5.13;;;14.00;99.90;;;;;;4990592;28;20245;-67
2021/06/22 02:40:38;;;;;;;8.30;5.30;;;14.00;99.90;;;;;;4988683;28;20734;-68
2021/06/22 02:43:07;;;;;;;8.30;5.37;;;14.00;99.90;;;;;;4988205;28;20674;-68
2021/06/22 02:45:36;;;;;;;7.07;5.40;;;13.90;99.90;;;;;;4989704;28;20222;-68
2021/06/22 02:48:10;;;;;;;9.27;5.10;;;14.00;99.90;;;;;;4990644;28;20238;-67
2021/06/22 02:50:40;;;;;;;9.60;5.00;;;14.00;99.90;;;;;;4982509;28;20318;-67
2021/06/22 02:53:09;;;;;;;7.67;4.80;;;14.00;99.90;;;;;;4990162;28;20273;-68
2021/06/22 02:55:39;;;;;;;14.83;5.53;;;14.00;99.90;;;;;;4988738;28;20641;-67
2021/06/22 02:58:08;;;;;;;12.40;6.27;;;14.00;99.90;;;;;;4981778;28;20219;-67
2021/06/22 03:00:36;;;;;;;8.80;6.13;;;13.90;99.90;;;;;;4980748;28;20195;-67
2021/06/22 03:03:05;;;;;;;7.60;6.37;;;13.90;99.90;;;;;;4991016;28;20195;-68
2021/06/22 03:05:35;;;;;;;9.43;6.07;;;13.90;99.90;;;;;;4990393;28;20659;-68
2021/06/22 03:08:03;;;;;;;11.20;6.20;;;13.90;99.90;;;;;;4990788;28;20231;-68
2021/06/22 03:10:34;;;;;;;14.73;6.43;;;13.90;99.90;;;;;;4990442;28;20322;-68
2021/06/22 03:13:03;;;;;;;10.23;6.67;;;13.90;99.90;;;;;;4989468;28;20219;-67
2021/06/22 03:15:31;;;;;;;8.43;6.47;;;13.90;99.90;;;;;;4988719;28;20195;-67
2021/06/22 03:18:00;;;;;;;14.27;6.83;;;13.80;99.90;;;;;;4990390;28;20281;-67
2021/06/22 03:20:28;;;;;;;8.27;6.43;;;13.80;99.90;;;;;;4989805;28;20233;-67
2021/06/22 03:22:58;;;;;;;11.57;6.63;;;13.80;99.90;;;;;;4990218;28;20223;-67
2021/06/22 03:25:26;;;;;;;11.17;6.73;;;13.80;99.90;;;;;;4990135;28;20733;-68
2021/06/22 03:27:57;;;;;;;7.07;6.37;;;13.70;99.90;;;;;;4990461;28;20194;-68
2021/06/22 03:30:25;;;;;;;11.53;7.17;;;13.80;99.90;;;;;;4990315;28;20253;-68
2021/06/22 03:32:54;;;;;;;12.03;6.73;;;13.70;99.90;;;;;;4990277;28;20286;-68
2021/06/22 03:35:27;;;;;;;11.27;6.70;;;13.70;99.90;;;;;;4990058;28;20194;-67
2021/06/22 03:37:58;;;;;;;16.33;7.37;;;13.60;99.90;;;;;;4989348;28;20566;-67
2021/06/22 03:40:27;;;;;;;10.77;6.53;;;13.70;99.90;;;;;;4989624;28;20277;-68
2021/06/22 03:42:55;;;;;;;10.33;6.97;;;13.70;99.90;;;;;;4986329;28;20203;-67
2021/06/22 03:45:24;;;;;;;13.67;7.10;;;13.70;99.90;;;;;;4989830;28;20194;-67
2021/06/22 03:47:53;;;;;;;11.23;6.93;;;13.70;99.90;;;;;;4990469;28;20206;-68
2021/06/22 03:50:21;;;;;;;10.70;6.43;;;13.60;99.90;;;;;;4972137;28;20252;-67
2021/06/22 03:52:50;;;;;;;9.07;6.80;;;13.60;99.90;;;;;;4988529;28;20284;-67
2021/06/22 03:55:29;;;;;;;8.30;5.97;;;13.60;99.90;;;;;;4988686;28;20301;-67
2021/06/22 03:58:00;;;;;;;12.70;6.53;;;13.60;99.90;;;;;;4988926;28;20196;-67
2021/06/22 04:00:29;;;;;;;8.73;6.20;;;13.50;99.90;;;;;;4989911;28;20246;-67
2021/06/22 04:02:59;;;;;;;13.23;6.47;;;13.50;99.90;;;;;;4989854;28;20899;-67
2021/06/22 04:05:29;;;;;;;15.80;6.77;;;13.60;99.90;;;;;;4989737;28;20286;-67
2021/06/22 04:07:59;;;;;;;13.47;6.80;;;13.60;99.90;;;;;;4990070;28;20283;-67
2021/06/22 04:10:29;;;;;;;14.53;7.00;;;13.60;99.90;;;;;;4980320;28;20249;-67
2021/06/22 04:12:58;;;;;;;15.00;6.97;;;13.60;99.90;;;;;;4988308;28;20289;-68
2021/06/22 04:15:27;;;;;;;9.87;7.00;;;13.60;99.90;;;;;;4989368;28;20670;-67
2021/06/22 04:18:01;;;;;;;17.37;7.00;;;13.50;99.90;;;;;;4984323;28;20264;-68
2021/06/22 04:20:30;;;;;;;15.07;7.10;;;13.50;99.90;;;;;;4989550;28;20196;-67
2021/06/22 04:22:58;;;;;;;13.37;7.20;;;13.50;99.90;;;;;;4988918;28;20602;-68
2021/06/22 04:25:27;;;;;;;13.70;7.23;;;13.50;99.90;;;;;;4990409;28;20199;-67
2021/06/22 04:28:01;;;;;;;14.50;7.13;;;13.40;99.90;;;;;;4993167;28;20187;-67
2021/06/22 04:30:30;;;;;;;9.40;6.27;;;13.50;99.90;;;;;;4993323;28;20294;-67
2021/06/22 04:32:59;;;;;;;15.67;7.17;;;13.50;99.90;;;;;;4980659;28;20667;-68
2021/06/22 04:35:29;;;;;;;19.97;7.10;;;13.50;99.90;;;;;;4993356;28;20214;-68
2021/06/22 04:37:58;;;;;;;14.47;7.13;;;13.50;99.90;;;;;;4974453;28;20273;-67
2021/06/22 04:40:27;;;;;;;14.73;6.87;;;13.40;99.90;;;;;;4992503;28;20191;-67
2021/06/22 04:42:56;;;;;;;18.57;7.43;;;13.40;99.90;;;;;;4991741;28;20195;-67
2021/06/22 04:45:26;;;;;;;13.83;7.40;;;13.40;99.90;;;;;;4991437;28;20187;-67
2021/06/22 04:47:55;;;;;;;17.13;7.10;;;13.40;99.90;;;;;;4992212;28;20645;-67
2021/06/22 04:50:24;;;;;;;11.83;7.30;;;13.40;99.90;;;;;;4988776;28;20191;-68
2021/06/22 04:52:53;;;;;;;10.07;6.97;;;13.40;99.90;;;;;;4989524;28;20353;-68
2021/06/22 04:55:25;;;;;;;18.53;8.03;;;13.30;99.90;;;;;;4991817;28;20199;-68
2021/06/22 04:57:57;;;;;;;15.50;7.60;;;13.30;99.90;;;;;;4991703;28;20190;-68
2021/06/22 05:00:28;;;;;;;15.63;7.83;;;13.30;99.90;;;;;;4964279;28;20196;-68
2021/06/22 05:02:57;;;;;;;20.13;8.03;;;13.30;99.90;;;;;;4992301;28;20229;-68
2021/06/22 05:05:27;;;;;;;13.80;7.50;;;13.20;99.90;;;;;;4984900;28;20282;-69
2021/06/22 05:07:55;;;;;;;15.57;7.70;;;13.20;99.90;;;;;;4985337;28;20229;-69
2021/06/22 05:10:27;;;;;;;18.33;7.30;;;13.20;99.90;;;;;;4983387;28;20199;-70
2021/06/22 05:12:55;;;;;;;12.90;7.70;;;13.20;99.90;;;;;;4990305;28;20301;-70
2021/06/22 05:15:24;;;;;;;18.07;8.57;;;13.10;99.90;;;;;;4988358;28;20290;-69
2021/06/22 05:17:55;;;;;;;21.37;8.80;;;13.10;99.90;;;;;;4990308;28;20203;-70
2021/06/22 05:20:23;;;;;;;16.63;8.63;;;13.10;99.90;;;;;;4991879;28;20227;-70
2021/06/22 05:22:51;;;;;;;20.93;7.67;;;13.10;99.90;;;;;;4990434;28;20195;-70
2021/06/22 05:25:20;;;;;;;18.33;9.00;;;13.10;99.90;;;;;;4988830;28;20218;-69
2021/06/22 05:27:49;;;;;;;14.83;7.97;;;13.10;99.90;;;;;;4987912;28;20187;-70
2021/06/22 05:30:18;;;;;;;17.87;8.23;;;13.00;99.90;;;;;;4991651;28;20199;-70
2021/06/22 05:32:46;;;;;;;19.53;8.50;;;13.00;99.90;;;;;;4986047;28;20772;-70
2021/06/22 05:35:16;;;;;;;11.47;7.50;;;13.00;99.90;;;;;;4985547;28;20245;-70
2021/06/22 05:37:45;;;;;;;15.60;8.43;;;13.00;99.90;;;;;;4990248;28;20199;-70
2021/06/22 05:40:14;;;;;;;13.30;8.03;;;13.00;99.90;;;;;;4989013;28;20195;-70
2021/06/22 05:42:42;;;;;;;15.30;7.93;;;13.10;99.90;;;;;;4972245;28;20190;-69
2021/06/22 05:45:11;;;;;;;10.20;7.80;;;13.10;99.90;;;;;;4994822;28;20191;-70
2021/06/22 05:47:39;;;;;;;14.50;7.47;;;13.10;99.90;;;;;;4988423;28;20319;-70
2021/06/22 05:50:10;;;;;;;12.23;7.43;;;13.00;99.90;;;;;;4991252;28;20285;-69
2021/06/22 05:52:41;;;;;;;19.17;8.70;;;13.10;99.90;;;;;;4989055;28;20242;-70
2021/06/22 05:55:21;;;;;;;13.40;8.47;;;13.10;99.90;;;;;;4986976;28;20234;-69
2021/06/22 05:57:52;;;;;;;14.40;8.10;;;13.10;99.90;;;;;;4987758;28;20202;-70
2021/06/22 06:00:22;;;;;;;14.20;8.23;;;13.00;99.90;;;;;;4982307;28;20261;-70
2021/06/22 06:02:51;;;;;;;15.83;7.73;;;13.10;99.90;;;;;;4986030;28;20261;-70
2021/06/22 06:05:22;;;;;;;14.20;7.37;;;13.00;99.90;;;;;;4989961;28;20255;-70
2021/06/22 06:07:53;;;;;;;10.57;7.30;;;13.10;99.90;;;;;;4991210;28;20187;-70
2021/06/22 06:10:22;;;;;;;13.87;6.90;;;13.00;99.90;;;;;;4991839;28;20702;-70
2021/06/22 06:12:53;;;;;;;16.63;7.30;;;13.00;99.90;;;;;;4988945;28;20369;-70
2021/06/22 06:15:22;;;;;;;12.90;7.03;;;13.00;99.90;;;;;;4988301;28;20197;-70
2021/06/22 06:17:51;;;;;;;14.90;7.77;;;13.00;99.90;;;;;;4989677;28;20257;-70
2021/06/22 06:20:20;;;;;;;12.43;6.77;;;13.00;99.90;;;;;;4990645;28;20195;-70
2021/06/22 06:22:49;;;;;;;13.50;7.30;;;13.00;99.90;;;;;;4989474;28;20285;-71
2021/06/22 06:25:19;;;;;;;12.73;7.43;;;12.90;99.90;;;;;;4990654;28;20214;-71
2021/06/22 06:27:56;;;;;;;15.67;7.37;;;13.00;99.90;;;;;;4986732;28;20245;-71
2021/06/22 06:30:28;;;;;;;10.87;7.10;;;13.00;99.90;;;;;;4985521;28;20202;-71
2021/06/22 06:32:57;;;;;;;12.90;8.07;;;13.10;99.90;;;;;;4982673;28;20858;-71
2021/06/22 06:35:26;;;;;;;15.37;8.13;;;13.10;99.90;;;;;;4987596;28;20199;-71
2021/06/22 06:37:58;;;;;;;14.30;8.77;;;13.00;99.90;;;;;;4990688;28;20190;-71
2021/06/22 06:40:28;;;;;;;17.03;8.03;;;13.10;99.90;;;;;;4984609;28;20241;-72
2021/06/22 06:42:57;;;;;;;15.77;8.57;;;13.10;99.90;;;;;;4989742;28;20203;-72
2021/06/22 06:45:25;;;;;;;16.07;8.53;;;13.10;99.90;;;;;;4989048;28;20314;-72
2021/06/22 06:47:54;;;;;;;12.00;8.90;;;13.10;99.90;;;;;;4987239;28;20234;-72
2021/06/22 06:50:27;;;;;;;11.33;8.63;;;13.10;99.90;;;;;;4985544;28;20253;-72
2021/06/22 06:52:55;;;;;;;20.30;9.63;;;13.10;99.90;;;;;;4990629;28;20326;-72
2021/06/22 06:55:28;;;;;;;17.03;9.83;;;13.10;99.90;;;;;;4990910;28;20579;-72
2021/06/22 06:58:05;;;;;;;15.53;9.20;;;13.10;99.90;;;;;;4989041;28;20194;-71
2021/06/22 07:00:36;;;;;;;16.10;9.90;;;13.10;99.90;;;;;;4990568;28;20205;-72
2021/06/22 07:03:05;;;;;;;20.70;10.50;;;13.10;99.90;;;;;;4987822;28;20205;-72
2021/06/22 07:05:34;;;;;;;19.50;10.73;;;13.10;99.90;;;;;;4988374;28;20253;-72
2021/06/22 07:08:04;;;;;;;16.43;9.43;;;13.10;99.90;;;;;;4988596;28;20257;-72
2021/06/22 07:10:33;;;;;;;20.13;10.53;;;13.20;99.90;;;;;;4988795;28;20277;-71
2021/06/22 07:13:04;;;;;;;16.07;10.53;;;13.20;99.90;;;;;;4988547;28;20203;-71
2021/06/22 07:15:33;;;;;;;17.07;10.67;;;13.20;99.90;;;;;;4987136;28;20199;-71
2021/06/22 07:18:02;;;;;;;19.73;10.37;;;13.20;99.90;;;;;;4986398;28;20297;-72
2021/06/22 07:20:30;;;;;;;21.70;11.30;;;13.20;99.90;;;;;;4989004;28;20215;-71
2021/06/22 07:22:59;;;;;;;16.40;10.77;;;13.20;99.90;;;;;;4987424;28;20249;-71
2021/06/22 07:25:27;;;;;;;19.53;11.97;;;13.30;99.90;;;;;;4988816;28;20190;-72
2021/06/22 07:27:57;;;;;;;20.83;12.00;;;13.30;99.90;;;;;;4989529;28;20678;-72
2021/06/22 07:30:27;;;;;;;17.70;12.07;;;13.30;99.90;;;;;;4989064;28;20346;-72
2021/06/22 07:32:57;;;;;;;22.13;11.67;;;13.40;99.90;;;;;;4990075;28;20306;-72
2021/06/22 07:35:26;;;;;;;17.57;10.83;;;13.40;99.90;;;;;;4990039;28;20195;-72
2021/06/22 07:37:55;;;;;;;21.07;11.57;;;13.40;99.90;;;;;;4985393;28;20203;-72
2021/06/22 07:40:24;;;;;;;18.13;10.80;;;13.40;99.90;;;;;;4984672;28;20297;-72
2021/06/22 07:42:55;;;;;;;15.50;11.07;;;13.50;99.90;;;;;;4984769;28;20221;-72
2021/06/22 07:45:24;;;;;;;17.50;10.80;;;13.60;99.90;;;;;;4985132;28;20813;-72
2021/06/22 07:47:55;;;;;;;17.30;10.97;;;13.50;99.90;;;;;;4985424;28;20201;-72
2021/06/22 07:50:23;;;;;;;15.90;11.57;;;13.50;99.90;;;;;;4982342;28;20257;-72
2021/06/22 07:52:52;;;;;;;17.33;11.53;;;13.60;99.90;;;;;;4984860;28;20235;-71
2021/06/22 07:55:21;;;;;;;19.40;11.57;;;13.70;99.90;;;;;;4983839;28;20659;-72
2021/06/22 07:57:51;;;;;;;20.47;11.37;;;13.70;99.90;;;;;;4989199;28;20197;-71
2021/06/22 08:00:31;;;;;;;13.30;11.07;;;13.80;99.90;;;;;;4990654;28;20273;-72
2021/06/22 08:03:00;;;;;;;14.00;11.07;;;13.90;99.90;;;;;;4992651;28;20281;-71
2021/06/22 08:05:29;;;;;;;18.03;11.50;;;13.90;99.90;;;;;;4978679;28;20189;-72
2021/06/22 08:07:57;;;;;;;17.50;11.87;;;14.00;99.90;;;;;;4993612;28;20262;-71
2021/06/22 08:10:26;;;;;;;20.83;12.10;;;14.10;99.90;;;;;;4993746;28;20289;-72
2021/06/22 08:12:54;;;;;;;19.73;11.60;;;14.20;99.90;;;;;;4993901;28;20276;-72
2021/06/22 08:15:23;;;;;;;18.60;10.80;;;14.20;99.90;;;;;;4992074;28;20213;-71
2021/06/22 08:17:51;;;;;;;18.90;11.17;;;14.20;99.90;;;;;;4993777;28;20226;-72
2021/06/22 08:20:22;;;;;;;16.53;11.17;;;14.20;99.90;;;;;;4993172;28;20233;-72
2021/06/22 08:22:53;;;;;;;13.23;9.93;;;14.30;99.90;;;;;;4987892;28;20202;-71
2021/06/22 08:25:25;;;;;;;15.70;10.33;;;14.30;99.90;;;;;;4993312;28;20719;-72
2021/06/22 08:27:54;;;;;;;15.50;9.63;;;14.40;99.90;;;;;;4993076;28;20249;-71
2021/06/22 08:30:25;;;;;;;14.03;9.50;;;14.30;99.90;;;;;;4992962;28;20591;-71
2021/06/22 08:32:55;;;;;;;14.97;9.33;;;14.30;99.90;;;;;;4993121;28;20217;-71
2021/06/22 08:35:27;;;;;;;14.47;10.13;;;14.40;99.90;;;;;;4992689;28;20206;-71
2021/06/22 08:37:59;;;;;;;14.07;9.40;;;14.50;99.90;;;;;;4993115;28;20199;-71
2021/06/22 08:40:28;;;;;;;16.20;9.70;;;14.50;99.90;;;;;;4992415;28;20214;-71
2021/06/22 08:42:59;;;;;;;17.37;10.30;;;14.50;99.90;;;;;;4993634;28;20761;-71
2021/06/22 08:45:27;;;;;;;13.80;9.50;;;14.70;99.90;;;;;;4992968;28;21682;-71
2021/06/22 08:47:57;;;;;;;16.83;9.80;;;14.80;99.90;;;;;;4993579;28;20209;-71
2021/06/22 08:50:27;;;;;;;12.80;9.90;;;14.90;99.90;;;;;;4991372;28;20610;-71
2021/06/22 08:52:58;;;;;;;17.03;9.97;;;15.00;99.90;;;;;;4993177;28;20226;-72
2021/06/22 08:55:27;;;;;;;16.60;9.37;;;15.00;99.90;;;;;;4989467;28;20203;-71
2021/06/22 08:57:57;;;;;;;14.93;9.23;;;15.10;99.90;;;;;;4988649;28;20192;-71
2021/06/22 09:00:27;;;;;;;13.87;9.13;;;15.30;99.90;;;;;;4990695;28;20230;-71
2021/06/22 09:03:02;;;;;;;14.07;9.40;;;15.40;99.90;;;;;;4992402;28;20210;-70
2021/06/22 09:05:32;;;;;;;13.33;8.80;;;15.30;99.90;;;;;;4992230;28;20665;-71
2021/06/22 09:08:00;;;;;;;14.07;8.60;;;15.50;99.90;;;;;;4993217;28;20199;-71
2021/06/22 09:10:30;;;;;;;15.60;8.63;;;15.50;99.90;;;;;;4983859;28;20711;-69
2021/06/22 09:13:00;;;;;;;13.03;8.20;;;15.50;99.90;;;;;;4991956;28;20195;-71
2021/06/22 09:15:32;;;;;;;13.83;7.40;;;15.50;99.90;;;;;;4986997;28;20195;-70
2021/06/22 09:18:01;;;;;;;15.50;7.57;;;15.40;99.90;;;;;;4989804;28;20214;-70
2021/06/22 09:20:42;;;;;;;10.20;7.77;;;15.40;99.90;;;;;;4991547;28;20674;-70
2021/06/22 09:23:17;;;;;;;13.83;8.07;;;15.20;99.90;;;;;;4992394;28;20241;-70
2021/06/22 09:25:47;;;;;;;10.47;7.90;;;15.30;99.90;;;;;;4991826;28;20202;-70
2021/06/22 09:28:16;;;;;;;13.93;7.97;;;15.30;99.90;;;;;;4992553;28;20286;-70
2021/06/22 09:30:47;;;;;;;11.90;8.20;;;15.20;99.90;;;;;;4988210;28;20644;-70
2021/06/22 09:33:26;;;;;;;16.33;8.00;;;15.20;99.90;;;;;;4988628;28;20230;-70
2021/06/22 09:36:02;;;;;;;16.60;8.10;;;15.20;99.90;;;;;;4991776;28;20233;-70
2021/06/22 09:38:32;;;;;;;12.33;8.53;;;15.10;99.90;;;;;;4991931;28;20271;-70
2021/06/22 09:41:16;;;;;;;16.80;8.63;;;15.10;99.90;;;;;;4973682;28;20694;-70
2021/06/22 09:43:47;;;;;;;14.90;9.33;;;15.00;99.90;;;;;;4993967;28;20671;-70
2021/06/22 09:46:17;;;;;;;20.53;9.73;;;14.80;99.90;;;;;;4995918;28;20281;-70
2021/06/22 09:48:53;;;;;;;15.93;9.57;;;14.60;99.90;;;;;;4997773;28;20256;-71
2021/06/22 09:51:30;;;;;;;21.20;11.00;;;14.70;99.90;;;;;;4990136;28;20245;-70
2021/06/22 09:54:13;;;;;;;19.13;9.90;;;14.90;99.90;;;;;;4991783;28;20231;-71
2021/06/22 09:56:59;;;;;;;19.10;10.37;;;15.10;99.90;;;;;;4985894;28;20261;-70
2021/06/22 09:59:29;;;;;;;16.27;10.50;;;15.10;99.90;;;;;;4989499;28;20631;-70
2021/06/22 10:02:08;;;;;;;17.33;10.60;;;15.10;99.90;;;;;;4992265;28;20227;-71
2021/06/22 10:04:37;;;;;;;21.03;10.37;;;15.20;99.90;;;;;;4989895;28;20230;-70
2021/06/22 10:07:11;;;;;;;26.57;11.10;;;15.20;99.90;;;;;;4991304;28;20241;-70
2021/06/22 10:09:40;;;;;;;17.77;11.70;;;15.10;99.90;;;;;;4983907;28;20930;-70
2021/06/22 10:12:11;;;;;;;15.70;11.90;;;15.10;99.90;;;;;;4988719;28;20199;-70
2021/06/22 10:14:42;;;;;;;19.43;12.60;;;15.20;99.90;;;;;;4990974;28;20226;-70
2021/06/22 10:17:14;;;;;;;24.27;12.20;;;15.20;99.90;;;;;;4987696;28;20289;-70
2021/06/22 10:19:44;;;;;;;20.23;12.83;;;15.50;99.90;;;;;;4986420;28;20667;-70
2021/06/22 10:22:16;;;;;;;19.67;12.33;;;15.50;99.90;;;;;;4990049;28;20660;-70
2021/06/22 10:24:47;;;;;;;20.97;12.07;;;15.70;99.90;;;;;;4990497;28;20195;-70
2021/06/22 10:27:18;;;;;;;21.10;13.50;;;16.00;99.90;;;;;;4989777;28;20294;-69
2021/06/22 10:29:47;;;;;;;21.03;13.23;;;16.20;99.90;;;;;;4976805;28;20240;-69
2021/06/22 10:32:16;;;;;;;19.47;13.90;;;16.20;99.90;;;;;;4986511;28;20582;-69
2021/06/22 10:34:49;;;;;;;17.20;13.40;;;16.20;99.90;;;;;;4989067;28;20262;-69
2021/06/22 10:37:25;;;;;;;21.17;13.67;;;16.00;99.90;;;;;;4990076;28;20245;-69
2021/06/22 10:39:57;;;;;;;22.47;14.53;;;15.70;99.90;;;;;;4983043;28;20629;-69
2021/06/22 10:42:26;;;;;;;22.40;13.90;;;15.70;99.90;;;;;;4993574;28;20655;-69
2021/06/22 10:45:02;;;;;;;25.00;14.90;;;15.90;99.90;;;;;;4997712;28;20201;-69
2021/06/22 10:47:34;;;;;;;22.83;15.37;;;15.90;99.90;;;;;;4991017;28;20257;-69
2021/06/22 10:50:16;;;;;;;22.27;15.80;;;15.90;99.90;;;;;;4985094;28;20199;-69
2021/06/22 10:52:55;;;;;;;23.17;15.80;;;15.80;99.90;;;;;;4988738;28;20237;-69
2021/06/22 10:56:01;;;;;;;25.23;15.60;;;15.80;99.90;;;;;;4986409;28;20215;-69
2021/06/22 10:58:30;;;;;;;19.83;15.63;;;15.80;99.90;;;;;;4990492;28;20249;-69
2021/06/22 11:01:19;;;;;;;22.87;15.70;;;15.90;99.90;;;;;;4989814;28;20623;-69
2021/06/22 11:04:05;;;;;;;24.90;16.73;;;15.90;99.90;;;;;;4990295;28;20192;-69
2021/06/22 11:06:34;;;;;;;31.57;17.00;;;16.00;99.90;;;;;;4989372;28;20195;-69
2021/06/22 11:09:18;;;;;;;28.27;17.63;;;16.00;99.90;;;;;;4989676;28;20199;-69
2021/06/22 11:11:47;;;;;;;23.53;17.27;;;16.00;99.90;;;;;;4988999;28;20225;-69
2021/06/22 11:14:17;;;;;;;29.03;18.50;;;16.10;99.90;;;;;;4989715;28;20608;-69
2021/06/22 11:16:45;;;;;;;25.50;17.93;;;16.20;99.90;;;;;;4990500;28;20203;-69
2021/06/22 11:19:14;;;;;;;24.47;18.20;;;16.20;99.90;;;;;;4989272;28;20231;-69
2021/06/22 11:21:54;;;;;;;28.17;17.67;;;16.20;99.90;;;;;;4989488;28;20256;-69
2021/06/22 11:24:29;;;;;;;25.93;18.30;;;16.10;99.90;;;;;;4986710;28;20233;-68
2021/06/22 11:27:04;;;;;;;31.07;19.03;;;16.20;99.90;;;;;;4990163;28;20222;-69
2021/06/22 11:29:47;;;;;;;25.13;18.83;;;16.50;99.90;;;;;;4988642;28;20194;-69
2021/06/22 11:32:42;;;;;;;24.00;18.20;;;16.60;99.90;;;;;;4989455;28;20202;-69
2021/06/22 11:35:13;;;;;;;28.93;19.30;;;16.90;99.90;;;;;;4943650;28;20305;-69
2021/06/22 11:37:44;;;;;;;26.07;17.70;;;17.00;99.90;;;;;;4989955;28;20233;-69
2021/06/22 11:40:22;;;;;;;25.37;18.20;;;16.90;99.90;;;;;;4990515;28;20617;-69
2021/06/22 11:43:09;;;;;;;28.77;18.93;;;16.60;99.90;;;;;;4996788;28;20233;-69
2021/06/22 11:45:39;;;;;;;30.50;19.17;;;16.50;99.90;;;;;;4986746;28;20804;-69
2021/06/22 11:48:07;;;;;;;29.37;20.20;;;16.60;99.90;;;;;;4990249;28;20222;-69
2021/06/22 11:50:52;;;;;;;27.00;19.33;;;16.60;99.90;;;;;;4991568;28;20564;-69
2021/06/22 11:53:20;;;;;;;28.47;20.60;;;16.70;99.90;;;;;;4986832;28;20232;-68
2021/06/22 11:55:53;;;;;;;26.93;20.63;;;16.90;99.90;;;;;;4988996;28;20258;-69
2021/06/22 11:58:27;;;;;;;28.67;19.57;;;17.00;99.90;;;;;;4989835;28;20261;-69
2021/06/22 12:00:58;;;;;;;23.93;19.23;;;17.20;99.90;;;;;;4999825;28;20232;-69
2021/06/22 12:03:33;;;;;;;30.47;21.13;;;17.10;99.90;;;;;;4989504;28;20188;-69
2021/06/22 12:06:09;;;;;;;31.07;20.83;;;17.20;99.90;;;;;;4988192;28;20281;-69
2021/06/22 12:08:41;;;;;;;32.83;22.07;;;17.10;99.90;;;;;;4989853;28;20256;-69
2021/06/22 12:11:13;;;;;;;30.13;21.77;;;17.10;99.90;;;;;;4989373;28;20271;-69
2021/06/22 12:13:47;;;;;;;27.37;21.80;;;17.10;99.90;;;;;;4989097;28;20245;-69
2021/06/22 12:16:22;;;;;;;29.13;23.47;;;17.00;99.90;;;;;;4990466;28;20220;-69
2021/06/22 12:18:53;;;;;;;30.27;23.37;;;17.20;99.90;;;;;;4979508;28;20240;-69
2021/06/22 12:21:22;;;;;;;36.93;24.80;;;17.30;99.90;;;;;;4985005;28;20286;-68
2021/06/22 12:23:51;;;;;;;35.83;24.07;;;17.50;99.90;;;;;;4987167;28;20225;-69
2021/06/22 12:26:21;;;;;;;32.23;24.07;;;17.60;99.90;;;;;;4988699;28;20195;-68
2021/06/22 12:28:50;;;;;;;36.30;25.00;;;17.70;99.90;;;;;;4989304;28;20914;-69
2021/06/22 12:31:18;;;;;;;32.17;24.10;;;17.80;99.90;;;;;;4989755;28;20726;-69
2021/06/22 12:33:48;;;;;;;33.67;23.40;;;17.80;99.90;;;;;;4989167;28;20201;-69
2021/06/22 12:36:19;;;;;;;35.40;25.40;;;17.90;99.90;;;;;;4987086;28;20210;-69
2021/06/22 12:38:59;;;;;;;33.73;23.93;;;17.90;99.90;;;;;;4988539;28;20199;-69
2021/06/22 12:41:30;;;;;;;39.20;24.23;;;17.80;99.90;;;;;;4986347;28;20199;-68
2021/06/22 12:44:05;;;;;;;38.17;25.03;;;17.70;99.90;;;;;;4987737;28;20286;-69
2021/06/22 12:46:36;;;;;;;35.40;25.63;;;17.60;99.90;;;;;;4995025;28;20543;-69
2021/06/22 12:49:09;;;;;;;31.30;24.03;;;17.50;99.90;;;;;;4979708;28;20191;-69
2021/06/22 12:51:39;;;;;;;34.53;24.60;;;17.30;99.90;;;;;;4991792;28;20345;-69
2021/06/22 12:54:09;;;;;;;31.67;23.77;;;17.30;99.90;;;;;;4981984;28;20277;-69